Time;durP1;ratioP1;P1;durP2;ratioP2;P2;SDS_P1;SDS_P2;PMS_P1;PMS_P2;Temp;Humidity;BMP_temperature;BMP_pressure;BME280_temperature;BME280_humidity;BME280_pressure;Samples;Min_cycle;Max_cycle;Signal;HPM_P1;HPM_P2
2022/10/27 00:01:07;;;;;;;5.88;5.28;;;22.40;99.90;;;;;;6219648;28;89120;-65
2022/10/27 00:04:09;;;;;;;5.43;4.93;;;22.30;99.90;;;;;;6208942;28;88915;-64
2022/10/27 00:07:11;;;;;;;5.32;4.82;;;22.30;99.90;;;;;;6214609;28;88275;-64
2022/10/27 00:10:15;;;;;;;4.88;4.43;;;22.30;99.90;;;;;;6217394;28;89143;-64
2022/10/27 00:13:17;;;;;;;5.60;4.95;;;22.30;99.90;;;;;;6228793;28;88364;-64
2022/10/27 00:16:19;;;;;;;5.75;4.75;;;22.30;99.90;;;;;;6219144;28;89109;-64
2022/10/27 00:19:21;;;;;;;6.85;5.50;;;22.30;99.90;;;;;;6205379;28;89139;-65
2022/10/27 00:22:23;;;;;;;5.32;4.82;;;22.30;99.90;;;;;;6206281;28;90046;-65
2022/10/27 00:25:27;;;;;;;5.20;4.70;;;22.30;99.90;;;;;;6220416;28;90012;-65
2022/10/27 00:28:29;;;;;;;5.22;4.72;;;22.30;99.90;;;;;;6213698;28;89268;-64
2022/10/27 00:31:31;;;;;;;5.57;5.00;;;22.30;99.90;;;;;;6216298;28;89009;-65
2022/10/27 00:34:33;;;;;;;6.00;4.97;;;22.30;99.90;;;;;;6205014;28;89033;-64
2022/10/27 00:37:35;;;;;;;5.20;4.55;;;22.30;99.90;;;;;;6218763;28;89225;-65
2022/10/27 00:40:39;;;;;;;5.40;4.80;;;22.30;99.90;;;;;;6220583;28;88262;-65
2022/10/27 00:43:41;;;;;;;5.70;5.13;;;22.30;99.90;;;;;;6212278;28;88700;-65
2022/10/27 00:46:47;;;;;;;5.38;4.88;;;22.20;99.90;;;;;;6207101;28;89072;-64
2022/10/27 00:49:55;;;;;;;5.47;4.95;;;22.20;99.90;;;;;;6204780;28;89071;-65
2022/10/27 00:52:58;;;;;;;5.55;4.97;;;22.20;99.90;;;;;;6225959;28;89967;-65
2022/10/27 00:56:03;;;;;;;5.20;4.70;;;22.20;99.90;;;;;;6211206;28;89197;-65
2022/10/27 00:59:05;;;;;;;5.47;4.85;;;22.20;99.90;;;;;;6209516;28;89280;-64
2022/10/27 01:02:09;;;;;;;5.28;4.78;;;22.20;99.90;;;;;;6214930;28;89414;-65
2022/10/27 01:05:16;;;;;;;5.60;5.10;;;22.20;99.90;;;;;;6214925;28;89368;-65
2022/10/27 01:08:22;;;;;;;5.70;5.10;;;22.20;99.90;;;;;;6209179;28;89063;-65
2022/10/27 01:11:25;;;;;;;5.15;4.65;;;22.20;99.90;;;;;;6220504;28;89310;-65
2022/10/27 01:14:28;;;;;;;6.53;5.50;;;22.20;99.90;;;;;;6215259;28;88448;-65
2022/10/27 01:17:52;;;;;;;5.30;4.80;;;22.20;99.90;;;;;;6218522;28;89017;-65
2022/10/27 01:21:45;;;;;;;5.70;5.20;;;22.20;99.90;;;;;;6216740;28;88889;-65
2022/10/27 01:25:03;;;;;;;5.85;5.25;;;22.20;99.90;;;;;;6210183;28;90312;-64
2022/10/27 01:28:31;;;;;;;5.95;5.28;;;22.20;99.90;;;;;;6217500;28;89450;-65
2022/10/27 01:31:41;;;;;;;5.50;5.00;;;22.20;99.90;;;;;;6217246;28;89106;-65
2022/10/27 01:34:46;;;;;;;5.82;5.22;;;22.20;99.90;;;;;;6223973;28;89359;-65
2022/10/27 01:37:52;;;;;;;6.20;5.55;;;22.20;99.90;;;;;;6221578;28;89086;-65
2022/10/27 01:40:59;;;;;;;5.95;5.38;;;22.20;99.90;;;;;;6226895;28;89173;-65
2022/10/27 01:44:07;;;;;;;5.55;5.05;;;22.20;99.90;;;;;;6218398;28;89152;-65
2022/10/27 01:47:11;;;;;;;7.93;5.75;;;22.10;99.90;;;;;;6228452;28;88339;-65
2022/10/27 01:50:17;;;;;;;6.28;5.68;;;22.20;99.90;;;;;;6222208;28;89088;-65
2022/10/27 01:53:19;;;;;;;6.30;5.70;;;22.20;99.90;;;;;;6221414;28;89036;-65
2022/10/27 01:56:44;;;;;;;6.03;5.43;;;22.20;99.90;;;;;;6229361;28;89972;-65
2022/10/27 02:00:00;;;;;;;6.00;5.40;;;22.20;99.90;;;;;;6211973;28;91496;-65
2022/10/27 02:03:10;;;;;;;6.22;5.63;;;22.20;99.90;;;;;;6212740;28;89065;-65
2022/10/27 02:06:20;;;;;;;5.80;5.30;;;22.20;99.90;;;;;;6223728;28;89061;-65
2022/10/27 02:09:27;;;;;;;6.47;5.82;;;22.10;99.90;;;;;;6230302;28;89874;-65
2022/10/27 02:12:31;;;;;;;6.47;5.80;;;22.10;99.90;;;;;;6216947;28;89381;-65
2022/10/27 02:15:36;;;;;;;6.40;5.70;;;22.10;99.90;;;;;;6224845;28;90249;-65
2022/10/27 02:18:44;;;;;;;6.40;5.80;;;22.10;99.90;;;;;;6216227;28;88308;-65
2022/10/27 02:21:49;;;;;;;6.80;6.15;;;22.10;99.90;;;;;;6218413;28;87906;-65
2022/10/27 02:24:52;;;;;;;6.88;6.18;;;22.10;99.90;;;;;;6212298;28;89007;-65
2022/10/27 02:28:00;;;;;;;6.57;5.88;;;22.10;99.90;;;;;;6221123;28;89922;-65
2022/10/27 02:31:03;;;;;;;8.65;6.75;;;22.10;99.90;;;;;;6221196;28;89098;-65
2022/10/27 02:34:07;;;;;;;6.53;5.93;;;22.10;99.90;;;;;;6219503;28;89169;-65
2022/10/27 02:37:10;;;;;;;6.78;6.07;;;22.10;99.90;;;;;;6217327;28;89150;-65
2022/10/27 02:40:12;;;;;;;6.88;6.18;;;22.10;99.90;;;;;;6217712;28;88897;-65
2022/10/27 02:43:14;;;;;;;6.55;5.95;;;22.10;99.90;;;;;;6226144;28;89055;-65
2022/10/27 02:46:16;;;;;;;6.75;6.05;;;22.10;99.90;;;;;;6219534;28;89190;-65
2022/10/27 02:49:20;;;;;;;6.60;5.90;;;22.00;99.90;;;;;;6208492;28;88318;-66
2022/10/27 02:52:22;;;;;;;7.00;6.32;;;22.10;99.90;;;;;;6220994;28;89017;-65
2022/10/27 02:55:24;;;;;;;6.82;6.20;;;22.10;99.90;;;;;;6212312;28;88969;-66
2022/10/27 02:58:26;;;;;;;7.43;6.63;;;22.10;99.90;;;;;;6209239;28;90029;-65
2022/10/27 03:01:28;;;;;;;7.20;6.50;;;22.10;99.90;;;;;;6219081;28;89846;-65
2022/10/27 03:04:31;;;;;;;7.07;6.38;;;22.10;99.90;;;;;;6209619;28;89132;-65
2022/10/27 03:07:33;;;;;;;7.72;6.93;;;22.10;99.90;;;;;;6228864;28;89320;-66
2022/10/27 03:10:35;;;;;;;6.93;6.22;;;22.10;99.90;;;;;;6230521;28;89085;-65
2022/10/27 03:13:37;;;;;;;7.20;6.50;;;22.10;99.90;;;;;;6222693;28;89741;-66
2022/10/27 03:16:39;;;;;;;7.65;6.95;;;22.10;99.90;;;;;;6220216;28;89324;-65
2022/10/27 03:19:43;;;;;;;7.00;6.30;;;22.10;99.90;;;;;;6219919;28;88265;-65
2022/10/27 03:22:45;;;;;;;7.18;6.55;;;22.10;99.90;;;;;;6211556;28;89063;-65
2022/10/27 03:25:47;;;;;;;7.80;7.05;;;22.10;99.90;;;;;;6213417;28;89043;-65
2022/10/27 03:28:49;;;;;;;8.70;7.25;;;22.10;99.90;;;;;;6228569;28;90029;-65
2022/10/27 03:31:51;;;;;;;7.63;6.90;;;22.00;99.90;;;;;;6207369;28;89644;-65
2022/10/27 03:34:54;;;;;;;7.55;6.85;;;22.00;99.90;;;;;;6231126;28;88950;-65
2022/10/27 03:37:57;;;;;;;7.68;6.97;;;22.00;99.90;;;;;;6218294;28;89311;-65
2022/10/27 03:40:59;;;;;;;7.65;6.95;;;22.00;99.90;;;;;;6230683;28;88120;-65
2022/10/27 03:44:01;;;;;;;7.65;6.95;;;22.10;99.90;;;;;;6223333;28;88067;-65
2022/10/27 03:47:02;;;;;;;7.50;6.80;;;22.00;99.90;;;;;;6223340;28;89848;-65
2022/10/27 03:50:07;;;;;;;7.55;6.85;;;22.10;99.90;;;;;;6227289;28;88367;-65
2022/10/27 03:53:10;;;;;;;9.05;8.00;;;22.10;99.90;;;;;;6218032;28;87985;-65
2022/10/27 03:56:13;;;;;;;8.48;7.65;;;22.10;99.90;;;;;;6220499;28;87778;-65
2022/10/27 03:59:15;;;;;;;8.38;7.40;;;22.10;99.90;;;;;;6205729;28;89991;-66
2022/10/27 04:02:18;;;;;;;8.40;7.60;;;22.10;99.90;;;;;;6230755;28;89592;-65
2022/10/27 04:05:21;;;;;;;9.05;7.78;;;22.10;99.90;;;;;;6228558;28;89416;-65
2022/10/27 04:08:23;;;;;;;8.40;7.60;;;22.10;99.90;;;;;;6229366;28;89044;-65
2022/10/27 04:11:25;;;;;;;8.27;7.47;;;22.20;99.90;;;;;;6218371;28;89019;-65
2022/10/27 04:14:27;;;;;;;8.23;7.50;;;22.10;99.90;;;;;;6216488;28;89019;-65
2022/10/27 04:17:29;;;;;;;8.43;7.60;;;22.10;99.90;;;;;;6219576;28;89121;-65
2022/10/27 04:20:33;;;;;;;9.38;8.40;;;22.20;99.90;;;;;;6210952;28;88410;-65
2022/10/27 04:23:35;;;;;;;7.78;7.07;;;22.20;99.90;;;;;;6229734;28;89160;-65
2022/10/27 04:26:37;;;;;;;8.20;7.40;;;22.20;99.90;;;;;;6217619;28;89243;-66
2022/10/27 04:29:39;;;;;;;8.50;7.70;;;22.20;99.90;;;;;;6218774;28;90235;-65
2022/10/27 04:32:41;;;;;;;8.82;8.02;;;22.20;99.90;;;;;;6229128;28;89241;-65
2022/10/27 04:35:44;;;;;;;8.65;7.85;;;22.20;99.90;;;;;;6222904;28;89181;-65
2022/10/27 04:38:48;;;;;;;8.93;8.02;;;22.20;99.90;;;;;;6216402;28;89133;-65
2022/10/27 04:41:50;;;;;;;9.00;8.10;;;22.20;99.90;;;;;;6217661;28;89097;-65
2022/10/27 04:44:52;;;;;;;8.85;7.95;;;22.20;99.90;;;;;;6208933;28;89359;-65
2022/10/27 04:47:54;;;;;;;9.52;8.38;;;22.20;99.90;;;;;;6217754;28;87875;-65
2022/10/27 04:50:57;;;;;;;8.98;8.07;;;22.30;99.90;;;;;;6230547;28;88225;-65
2022/10/27 04:53:59;;;;;;;9.23;8.32;;;22.30;99.90;;;;;;6227719;28;88975;-66
2022/10/27 04:57:01;;;;;;;9.50;8.60;;;22.30;99.90;;;;;;6203642;28;88998;-66
2022/10/27 05:00:04;;;;;;;9.30;8.35;;;22.30;99.90;;;;;;6227470;27;90302;-66
2022/10/27 05:03:06;;;;;;;9.32;8.43;;;22.30;99.90;;;;;;6216814;28;89099;-65
2022/10/27 05:06:09;;;;;;;9.23;8.32;;;22.30;99.90;;;;;;6221013;28;88008;-66
2022/10/27 05:09:11;;;;;;;9.20;8.30;;;22.30;99.90;;;;;;6228472;28;89083;-65
2022/10/27 05:12:13;;;;;;;9.80;8.80;;;22.30;99.90;;;;;;6233383;28;89171;-66
2022/10/27 05:15:16;;;;;;;9.65;8.65;;;22.30;99.90;;;;;;6225705;28;89107;-65
2022/10/27 05:18:18;;;;;;;9.85;8.85;;;22.30;99.90;;;;;;6222533;28;89090;-65
2022/10/27 05:21:21;;;;;;;9.90;9.00;;;22.30;99.90;;;;;;6214066;28;88275;-66
2022/10/27 05:24:23;;;;;;;9.32;8.43;;;22.30;99.90;;;;;;6223014;28;90843;-65
2022/10/27 05:27:25;;;;;;;9.25;8.35;;;22.40;99.90;;;;;;6215771;28;89063;-65
2022/10/27 05:30:27;;;;;;;10.38;9.32;;;22.40;99.90;;;;;;6221793;28;90089;-66
2022/10/27 05:33:29;;;;;;;9.60;8.70;;;22.40;99.90;;;;;;6231331;28;88970;-66
2022/10/27 05:36:33;;;;;;;9.77;8.88;;;22.40;99.90;;;;;;6214946;28;89098;-65
2022/10/27 05:39:35;;;;;;;11.48;9.95;;;22.40;99.90;;;;;;6218523;28;89156;-66
2022/10/27 05:42:37;;;;;;;9.95;8.88;;;22.40;99.90;;;;;;6232515;28;89091;-66
2022/10/27 05:45:39;;;;;;;9.82;8.82;;;22.50;99.90;;;;;;6230918;28;89130;-66
2022/10/27 05:48:41;;;;;;;10.02;9.02;;;22.40;99.90;;;;;;6216712;28;87998;-66
2022/10/27 05:51:44;;;;;;;9.93;8.95;;;22.40;99.90;;;;;;6223324;28;88646;-65
2022/10/27 05:54:46;;;;;;;9.38;8.48;;;22.40;99.90;;;;;;6227347;28;89360;-65
2022/10/27 05:57:56;;;;;;;10.02;9.02;;;22.40;99.90;;;;;;6217860;28;88001;-66
2022/10/27 06:00:59;;;;;;;10.10;9.10;;;22.50;99.90;;;;;;6217431;28;90247;-66
2022/10/27 06:04:01;;;;;;;9.65;8.75;;;22.40;99.90;;;;;;6233018;28;89055;-66
2022/10/27 06:07:04;;;;;;;10.00;9.00;;;22.50;99.90;;;;;;6231893;28;89149;-66
2022/10/27 06:10:06;;;;;;;9.60;8.70;;;22.50;99.90;;;;;;6223091;28;89154;-65
2022/10/27 06:13:12;;;;;;;10.27;9.27;;;22.50;99.90;;;;;;6224426;28;88818;-66
2022/10/27 06:16:14;;;;;;;9.25;8.35;;;22.50;99.90;;;;;;6219656;28;89024;-65
2022/10/27 06:19:16;;;;;;;10.15;9.15;;;22.50;99.90;;;;;;6216940;28;89384;-66
2022/10/27 06:22:19;;;;;;;10.32;8.95;;;22.50;99.90;;;;;;6210521;28;88402;-65
2022/10/27 06:25:21;;;;;;;10.98;9.20;;;22.50;99.90;;;;;;6207989;28;89102;-66
2022/10/27 06:28:24;;;;;;;9.57;8.57;;;22.50;99.90;;;;;;6233142;28;89113;-65
2022/10/27 06:31:26;;;;;;;12.48;9.25;;;22.50;99.90;;;;;;6219699;28;90151;-66
2022/10/27 06:34:28;;;;;;;9.00;8.10;;;22.50;99.90;;;;;;6232608;28;89529;-66
2022/10/27 06:37:31;;;;;;;10.45;8.93;;;22.50;99.90;;;;;;6229761;28;89915;-65
2022/10/27 06:40:33;;;;;;;9.90;8.90;;;22.50;99.90;;;;;;6218038;28;89919;-65
2022/10/27 06:43:35;;;;;;;9.35;8.50;;;22.50;99.90;;;;;;6227634;28;89008;-65
2022/10/27 06:46:38;;;;;;;9.30;8.30;;;22.50;99.90;;;;;;6219353;28;89245;-65
2022/10/27 06:49:40;;;;;;;9.70;8.70;;;22.50;99.90;;;;;;6232954;28;89171;-65
2022/10/27 06:52:44;;;;;;;9.60;8.70;;;22.50;99.90;;;;;;6214467;28;88570;-66
2022/10/27 06:55:46;;;;;;;9.48;8.57;;;22.50;99.90;;;;;;6206814;28;89567;-65
2022/10/27 06:58:48;;;;;;;9.48;8.57;;;22.50;99.90;;;;;;6223860;28;87994;-66
2022/10/27 07:01:50;;;;;;;11.13;8.70;;;22.60;99.90;;;;;;6226333;28;90304;-65
2022/10/27 07:04:52;;;;;;;9.38;8.48;;;22.50;99.90;;;;;;6219289;28;88271;-66
2022/10/27 07:07:56;;;;;;;9.55;8.52;;;22.60;99.90;;;;;;6232194;28;87913;-65
2022/10/27 07:10:58;;;;;;;9.27;8.38;;;22.60;99.90;;;;;;6208235;28;88987;-65
2022/10/27 07:14:00;;;;;;;8.88;7.97;;;22.50;99.90;;;;;;6220814;28;89174;-65
2022/10/27 07:17:02;;;;;;;8.73;7.93;;;22.50;99.90;;;;;;6220674;28;89165;-65
2022/10/27 07:20:04;;;;;;;9.23;8.38;;;22.60;99.90;;;;;;6207471;28;88925;-66
2022/10/27 07:23:12;;;;;;;9.05;8.15;;;22.60;99.90;;;;;;6229608;28;88302;-65
2022/10/27 07:26:14;;;;;;;9.00;8.15;;;22.60;99.90;;;;;;6209976;28;89153;-66
2022/10/27 07:29:16;;;;;;;8.70;7.90;;;22.60;99.90;;;;;;6217336;28;89058;-65
2022/10/27 07:32:18;;;;;;;8.77;7.97;;;22.60;99.90;;;;;;6224982;28;90210;-66
2022/10/27 07:35:20;;;;;;;8.55;7.65;;;22.60;99.90;;;;;;6230867;28;88957;-66
2022/10/27 07:38:23;;;;;;;11.10;8.82;;;22.60;99.90;;;;;;6228148;28;89069;-65
2022/10/27 07:41:25;;;;;;;8.10;7.35;;;22.70;99.90;;;;;;6232178;28;89317;-66
2022/10/27 07:44:27;;;;;;;8.70;7.72;;;22.70;99.90;;;;;;6220357;28;89348;-65
2022/10/27 07:47:29;;;;;;;8.50;7.70;;;22.70;99.90;;;;;;6219878;28;89080;-65
2022/10/27 07:50:32;;;;;;;8.43;7.53;;;22.70;99.90;;;;;;6207439;28;89002;-65
2022/10/27 07:53:36;;;;;;;8.50;7.70;;;22.70;99.90;;;;;;6206984;28;88351;-66
2022/10/27 07:56:38;;;;;;;8.23;7.43;;;22.70;99.90;;;;;;6213467;28;88942;-65
2022/10/27 07:59:40;;;;;;;8.18;7.38;;;22.70;99.90;;;;;;6225509;28;89737;-65
2022/10/27 08:02:42;;;;;;;8.75;7.95;;;22.70;99.90;;;;;;6221936;28;88757;-65
2022/10/27 08:05:44;;;;;;;11.30;8.68;;;22.80;99.90;;;;;;6227443;28;89078;-66
2022/10/27 08:08:48;;;;;;;8.40;7.65;;;22.80;99.90;;;;;;6232365;28;89491;-65
2022/10/27 08:11:50;;;;;;;7.95;7.25;;;22.80;99.90;;;;;;6206719;28;89288;-65
2022/10/27 08:14:52;;;;;;;8.05;7.35;;;22.80;99.90;;;;;;6211665;28;89138;-65
2022/10/27 08:17:56;;;;;;;8.20;7.40;;;22.80;99.90;;;;;;6224064;28;87987;-65
2022/10/27 08:20:58;;;;;;;8.50;7.70;;;22.80;99.90;;;;;;6216609;28;89042;-66
2022/10/27 08:24:02;;;;;;;7.68;6.93;;;22.80;99.90;;;;;;6230524;28;88298;-65
2022/10/27 08:27:04;;;;;;;8.68;7.75;;;22.80;99.90;;;;;;6216686;28;87886;-65
2022/10/27 08:30:07;;;;;;;7.75;7.03;;;22.80;99.90;;;;;;6229840;28;89488;-65
2022/10/27 08:33:10;;;;;;;8.73;7.88;;;22.80;99.90;;;;;;6218331;28;90087;-65
2022/10/27 08:36:12;;;;;;;8.30;7.50;;;22.80;99.90;;;;;;6218898;28;89186;-65
2022/10/27 08:39:16;;;;;;;7.85;7.05;;;22.80;99.90;;;;;;6222489;28;89124;-65
2022/10/27 08:42:32;;;;;;;7.95;7.22;;;22.90;99.90;;;;;;6230083;28;89078;-65
2022/10/27 08:45:43;;;;;;;7.72;7.03;;;22.90;99.90;;;;;;6235389;28;89152;-65
2022/10/27 08:48:47;;;;;;;7.90;7.20;;;22.90;99.90;;;;;;6234503;28;89137;-65
2022/10/27 08:51:51;;;;;;;8.20;7.40;;;22.80;99.90;;;;;;6223840;28;88992;-65
2022/10/27 08:54:59;;;;;;;8.07;7.30;;;22.80;99.90;;;;;;6232999;28;88281;-65
2022/10/27 08:58:10;;;;;;;7.57;6.88;;;22.80;99.90;;;;;;6233740;28;89090;-65
2022/10/27 09:01:24;;;;;;;7.78;7.07;;;22.90;99.90;;;;;;6221402;28;89117;-65
2022/10/27 09:04:51;;;;;;;7.82;7.13;;;22.80;99.90;;;;;;6229672;28;89995;-65
2022/10/27 09:08:00;;;;;;;7.47;6.78;;;22.90;99.90;;;;;;6217992;28;89171;-65
2022/10/27 09:11:16;;;;;;;8.13;7.32;;;22.90;99.90;;;;;;6214985;28;89170;-65
2022/10/27 09:14:37;;;;;;;7.07;6.43;;;22.80;99.90;;;;;;6215885;28;89506;-65
2022/10/27 09:17:43;;;;;;;8.40;7.55;;;22.90;99.90;;;;;;6222235;28;89409;-65
2022/10/27 09:20:46;;;;;;;8.50;7.60;;;22.90;99.90;;;;;;6219937;28;89205;-65
2022/10/27 09:23:51;;;;;;;7.68;6.97;;;22.90;99.90;;;;;;6223588;28;89031;-65
2022/10/27 09:26:57;;;;;;;7.68;6.95;;;22.90;99.90;;;;;;6221280;28;88288;-65
2022/10/27 09:30:04;;;;;;;7.85;7.15;;;22.90;99.90;;;;;;6221799;28;89110;-65
2022/10/27 09:33:12;;;;;;;7.82;7.10;;;22.90;99.90;;;;;;6209531;28;88366;-65
2022/10/27 09:36:15;;;;;;;7.40;6.70;;;22.90;99.90;;;;;;6231569;28;90140;-65
2022/10/27 09:39:17;;;;;;;7.70;7.00;;;22.90;99.90;;;;;;6231010;28;89192;-65
2022/10/27 09:42:21;;;;;;;7.32;6.70;;;22.90;99.90;;;;;;6232903;28;91464;-65
2022/10/27 09:45:25;;;;;;;7.55;6.85;;;22.90;99.90;;;;;;6228449;28;89145;-65
2022/10/27 09:48:28;;;;;;;6.90;6.30;;;22.90;99.90;;;;;;6232339;28;89509;-65
2022/10/27 09:51:37;;;;;;;7.45;6.75;;;23.00;99.90;;;;;;6226106;28;89102;-65
2022/10/27 09:54:41;;;;;;;7.25;6.55;;;23.00;99.90;;;;;;6225323;28;89392;-65
2022/10/27 09:57:47;;;;;;;6.95;6.35;;;23.00;99.90;;;;;;6225411;28;88274;-65
2022/10/27 10:00:57;;;;;;;7.38;6.68;;;23.00;99.90;;;;;;6212024;28;88215;-65
2022/10/27 10:04:05;;;;;;;6.78;6.18;;;23.00;99.90;;;;;;6232766;28;89619;-65
2022/10/27 10:07:27;;;;;;;6.75;6.15;;;23.00;99.90;;;;;;6214458;28;89983;-65
2022/10/27 10:10:30;;;;;;;6.55;5.95;;;23.00;99.90;;;;;;6222741;28;89166;-65
2022/10/27 10:13:37;;;;;;;6.60;6.00;;;23.00;99.90;;;;;;6227358;28;89089;-65
2022/10/27 10:16:44;;;;;;;7.38;6.68;;;22.90;99.90;;;;;;6222354;28;89008;-65
2022/10/27 10:19:47;;;;;;;6.68;6.00;;;23.00;99.90;;;;;;6221925;28;89076;-66
2022/10/27 10:22:51;;;;;;;6.68;6.07;;;23.00;99.90;;;;;;6220114;28;88979;-66
2022/10/27 10:25:55;;;;;;;6.68;6.07;;;23.00;99.90;;;;;;6212861;28;89596;-65
2022/10/27 10:29:21;;;;;;;6.75;6.05;;;23.00;99.90;;;;;;6219751;28;88288;-65
2022/10/27 10:32:26;;;;;;;6.65;6.03;;;23.00;99.90;;;;;;6219484;28;88943;-65
2022/10/27 10:35:46;;;;;;;7.13;6.43;;;23.00;99.90;;;;;;6231235;28;89402;-65
2022/10/27 10:38:54;;;;;;;6.72;5.90;;;23.00;99.90;;;;;;6227605;28;90081;-65
2022/10/27 10:42:14;;;;;;;6.35;5.75;;;23.00;99.90;;;;;;6230739;28;89125;-65
2022/10/27 10:45:21;;;;;;;6.50;5.93;;;23.00;99.90;;;;;;6222446;28;88074;-65
2022/10/27 10:48:34;;;;;;;6.55;5.95;;;23.00;99.90;;;;;;6225045;28;89047;-65
2022/10/27 10:51:36;;;;;;;6.30;5.70;;;23.10;99.90;;;;;;6212968;28;88318;-65
2022/10/27 10:54:43;;;;;;;6.13;5.53;;;23.00;99.90;;;;;;6226845;28;89697;-65
2022/10/27 10:57:47;;;;;;;6.07;5.57;;;23.00;99.90;;;;;;6225074;28;88144;-65
2022/10/27 11:00:58;;;;;;;6.90;6.20;;;23.00;99.90;;;;;;6215686;28;88460;-65
2022/10/27 11:04:01;;;;;;;6.68;6.07;;;23.10;99.90;;;;;;6230331;28;89472;-66
2022/10/27 11:07:06;;;;;;;6.15;5.55;;;23.10;99.90;;;;;;6207911;28;89404;-65
2022/10/27 11:10:13;;;;;;;6.47;5.88;;;23.10;99.90;;;;;;6230801;28;90009;-65
2022/10/27 11:13:18;;;;;;;6.30;5.70;;;23.00;99.90;;;;;;6227020;28;89060;-65
2022/10/27 11:16:22;;;;;;;6.63;5.93;;;23.10;99.90;;;;;;6225657;28;89122;-65
2022/10/27 11:19:27;;;;;;;5.95;5.40;;;23.00;99.90;;;;;;6227572;28;89049;-66
2022/10/27 11:22:31;;;;;;;6.32;5.72;;;23.10;99.90;;;;;;6210656;28;89147;-66
2022/10/27 11:25:34;;;;;;;6.85;6.13;;;23.00;99.90;;;;;;6228851;28;89147;-66
2022/10/27 11:28:48;;;;;;;6.38;5.78;;;23.00;99.90;;;;;;6220953;28;89094;-65
2022/10/27 11:31:59;;;;;;;6.07;5.50;;;23.00;99.90;;;;;;6217124;28;88990;-65
2022/10/27 11:35:11;;;;;;;6.10;5.50;;;23.00;99.90;;;;;;6220621;28;88998;-66
2022/10/27 11:38:19;;;;;;;5.93;5.43;;;23.10;99.90;;;;;;6221452;28;89161;-65
2022/10/27 11:41:29;;;;;;;6.00;5.40;;;23.10;99.90;;;;;;6219245;28;90100;-65
2022/10/27 11:44:37;;;;;;;5.85;5.35;;;23.10;99.90;;;;;;6208545;28;89124;-65
2022/10/27 11:47:45;;;;;;;5.80;5.30;;;23.10;99.90;;;;;;6206719;28;90384;-66
2022/10/27 11:50:51;;;;;;;6.00;5.40;;;23.10;99.90;;;;;;6230757;28;89403;-66
2022/10/27 11:53:53;;;;;;;5.53;5.03;;;23.10;99.90;;;;;;6220339;28;89171;-65
2022/10/27 11:57:09;;;;;;;5.78;5.28;;;23.10;99.90;;;;;;6225911;28;89062;-65
2022/10/27 12:00:21;;;;;;;5.50;5.00;;;23.00;99.90;;;;;;6222931;28;89141;-66
2022/10/27 12:03:57;;;;;;;5.90;5.30;;;23.10;99.90;;;;;;6220657;28;88391;-66
2022/10/27 12:07:07;;;;;;;5.63;5.13;;;23.10;99.90;;;;;;6229713;28;90122;-65
2022/10/27 12:10:25;;;;;;;5.30;4.80;;;23.10;99.90;;;;;;6220956;28;89103;-65
2022/10/27 12:13:35;;;;;;;5.45;4.95;;;23.00;99.90;;;;;;6216935;28;89984;-66
2022/10/27 12:16:44;;;;;;;5.32;4.82;;;23.10;99.90;;;;;;6224625;28;89337;-65
2022/10/27 12:19:51;;;;;;;5.40;4.90;;;23.10;99.90;;;;;;6222996;28;88117;-66
2022/10/27 12:22:59;;;;;;;5.50;5.00;;;23.00;99.90;;;;;;6212246;28;89252;-65
2022/10/27 12:26:07;;;;;;;5.78;5.28;;;23.10;99.90;;;;;;6229510;28;88980;-66
2022/10/27 12:29:10;;;;;;;5.43;4.93;;;23.10;99.90;;;;;;6226732;28;89195;-65
2022/10/27 12:32:20;;;;;;;5.32;4.82;;;23.10;99.90;;;;;;6220512;28;89207;-66
2022/10/27 12:35:30;;;;;;;5.88;5.35;;;23.10;99.90;;;;;;6219540;28;87260;-65
2022/10/27 12:38:41;;;;;;;5.45;4.95;;;23.10;99.90;;;;;;6217834;28;88355;-65
2022/10/27 12:41:51;;;;;;;5.55;5.03;;;23.00;99.90;;;;;;6226722;28;89058;-66
2022/10/27 12:45:02;;;;;;;5.53;5.03;;;23.10;99.90;;;;;;6211291;28;90116;-65
2022/10/27 12:48:12;;;;;;;5.50;5.00;;;23.10;99.90;;;;;;6210456;28;89093;-65
2022/10/27 12:51:27;;;;;;;5.60;5.10;;;23.10;99.90;;;;;;6224504;28;89122;-66
2022/10/27 12:54:44;;;;;;;5.20;4.70;;;23.00;99.90;;;;;;6217869;28;89264;-66
2022/10/27 12:57:51;;;;;;;5.38;4.88;;;23.10;99.90;;;;;;6223560;28;89219;-66
2022/10/27 13:01:01;;;;;;;5.15;4.70;;;23.10;99.90;;;;;;6211346;28;89555;-66
2022/10/27 13:04:24;;;;;;;5.00;4.60;;;23.00;99.90;;;;;;6217737;28;89506;-65
2022/10/27 13:07:54;;;;;;;5.57;4.95;;;23.10;99.90;;;;;;6219766;28;88427;-66
2022/10/27 13:11:13;;;;;;;5.40;4.85;;;23.00;99.90;;;;;;6225687;28;89193;-66
2022/10/27 13:14:53;;;;;;;5.53;4.85;;;23.00;99.90;;;;;;6209654;28;89088;-65
2022/10/27 13:18:05;;;;;;;4.70;4.30;;;23.00;99.90;;;;;;6206815;28;89963;-66
2022/10/27 13:21:15;;;;;;;4.80;4.40;;;23.00;99.90;;;;;;6211499;28;89119;-66
2022/10/27 13:24:27;;;;;;;4.93;4.53;;;23.00;99.90;;;;;;6221329;28;88602;-66
2022/10/27 13:27:36;;;;;;;5.13;4.63;;;23.00;99.90;;;;;;6225486;28;89085;-66
2022/10/27 13:30:42;;;;;;;4.95;4.47;;;23.10;99.90;;;;;;6222388;28;89030;-66
2022/10/27 13:34:16;;;;;;;5.50;4.95;;;23.10;99.90;;;;;;6232931;28;87928;-66
2022/10/27 13:37:38;;;;;;;5.40;4.80;;;23.10;99.90;;;;;;6223371;28;88987;-65
2022/10/27 13:40:42;;;;;;;4.80;4.40;;;23.10;99.90;;;;;;6229611;28;88419;-66
2022/10/27 13:43:45;;;;;;;5.00;4.50;;;23.10;99.90;;;;;;6223508;28;87962;-65
2022/10/27 13:47:19;;;;;;;5.05;4.65;;;23.10;99.90;;;;;;6232970;28;89043;-65
2022/10/27 13:50:35;;;;;;;5.03;4.53;;;23.10;99.90;;;;;;6231403;28;88824;-66
2022/10/27 13:53:37;;;;;;;4.60;4.20;;;23.10;99.90;;;;;;6232085;28;89052;-66
2022/10/27 13:56:40;;;;;;;4.75;4.35;;;23.10;99.90;;;;;;6227809;28;89054;-66
2022/10/27 13:59:44;;;;;;;4.40;4.00;;;23.10;99.90;;;;;;6220992;28;89079;-66
2022/10/27 14:03:04;;;;;;;5.10;4.60;;;23.10;99.90;;;;;;6223715;28;89178;-65
2022/10/27 14:06:20;;;;;;;4.70;4.30;;;23.10;99.90;;;;;;6228552;28;89045;-66
2022/10/27 14:09:30;;;;;;;4.68;4.28;;;23.10;99.90;;;;;;6213833;28;88937;-66
2022/10/27 14:12:35;;;;;;;4.55;4.15;;;23.10;99.90;;;;;;6220193;28;88345;-66
2022/10/27 14:15:37;;;;;;;4.38;3.97;;;23.10;99.90;;;;;;6220264;28;89309;-66
2022/10/27 14:18:39;;;;;;;4.68;4.28;;;23.10;99.90;;;;;;6233217;28;89241;-66
2022/10/27 14:21:45;;;;;;;4.40;4.00;;;23.10;99.90;;;;;;6229540;28;90941;-66
2022/10/27 14:24:51;;;;;;;4.57;4.18;;;23.10;99.90;;;;;;6210120;28;89147;-66
2022/10/27 14:28:06;;;;;;;4.50;4.10;;;23.10;99.90;;;;;;6215483;28;89172;-66
2022/10/27 14:31:10;;;;;;;4.35;3.95;;;23.10;99.90;;;;;;6219803;28;89365;-66
2022/10/27 14:34:17;;;;;;;4.70;4.30;;;23.10;99.90;;;;;;6221210;28;89149;-66
2022/10/27 14:37:23;;;;;;;4.53;4.13;;;23.10;99.90;;;;;;6228507;28;89046;-66
2022/10/27 14:40:35;;;;;;;4.60;4.20;;;23.00;99.90;;;;;;6231040;28;89092;-66
2022/10/27 14:43:42;;;;;;;4.35;3.95;;;23.10;99.90;;;;;;6233051;28;88376;-66
2022/10/27 14:46:47;;;;;;;4.60;4.20;;;23.10;99.90;;;;;;6212479;28;87796;-66
2022/10/27 14:49:52;;;;;;;4.50;4.10;;;23.00;99.90;;;;;;6220374;28;89049;-66
2022/10/27 14:52:57;;;;;;;4.20;3.80;;;23.10;99.90;;;;;;6224344;28;89967;-66
2022/10/27 14:56:05;;;;;;;4.97;4.47;;;23.10;99.90;;;;;;6231216;28;88932;-66
2022/10/27 14:59:19;;;;;;;4.43;4.03;;;23.00;99.90;;;;;;6231389;28;88169;-66
2022/10/27 15:02:22;;;;;;;4.72;4.22;;;23.00;99.90;;;;;;6206900;28;89534;-66
2022/10/27 15:05:26;;;;;;;4.72;4.25;;;23.10;99.90;;;;;;6220285;28;88258;-66
2022/10/27 15:08:37;;;;;;;3.97;3.67;;;23.00;99.90;;;;;;6231714;28;89071;-66
2022/10/27 15:11:39;;;;;;;4.22;3.83;;;23.00;99.90;;;;;;6209220;28;89146;-66
2022/10/27 15:14:46;;;;;;;4.20;3.90;;;23.00;99.90;;;;;;6222383;28;88753;-66
2022/10/27 15:17:50;;;;;;;4.50;4.10;;;23.00;99.90;;;;;;6230616;28;89502;-65
2022/10/27 15:20:53;;;;;;;4.32;3.95;;;23.10;99.90;;;;;;6215418;28;89067;-66
2022/10/27 15:24:01;;;;;;;4.35;3.95;;;23.10;99.90;;;;;;6211668;28;90380;-65
2022/10/27 15:27:04;;;;;;;4.30;3.90;;;23.00;99.90;;;;;;6227292;28;89015;-66
2022/10/27 15:30:15;;;;;;;3.92;3.63;;;23.00;99.90;;;;;;6210510;28;88076;-65
2022/10/27 15:33:32;;;;;;;4.40;4.00;;;23.10;99.90;;;;;;6227964;28;89082;-66
2022/10/27 15:36:34;;;;;;;4.40;4.00;;;23.10;99.90;;;;;;6217945;28;88974;-65
2022/10/27 15:39:36;;;;;;;4.38;3.90;;;23.00;99.90;;;;;;6231387;28;87996;-66
2022/10/27 15:42:38;;;;;;;4.40;4.00;;;23.00;99.90;;;;;;6220851;28;89247;-66
2022/10/27 15:45:43;;;;;;;4.40;4.00;;;23.00;99.90;;;;;;6223294;28;88674;-65
2022/10/27 15:48:46;;;;;;;4.32;3.92;;;23.00;99.90;;;;;;6227011;28;89118;-65
2022/10/27 15:51:51;;;;;;;4.25;3.85;;;23.00;99.90;;;;;;6230966;28;89185;-66
2022/10/27 15:54:53;;;;;;;4.22;3.83;;;23.00;99.90;;;;;;6226726;28;89825;-66
2022/10/27 15:57:55;;;;;;;3.90;3.60;;;23.00;99.90;;;;;;6220599;28;89247;-66
2022/10/27 16:01:04;;;;;;;4.40;4.00;;;23.00;99.90;;;;;;6217419;28;89197;-66
2022/10/27 16:04:19;;;;;;;4.43;4.03;;;23.00;99.90;;;;;;6221043;28;89062;-66
2022/10/27 16:07:31;;;;;;;4.25;3.90;;;23.00;99.90;;;;;;6210054;28;89107;-66